createdAt,value
2018-07-07T00:01:23.703Z,15.18
2018-07-07T00:03:50.829Z,15.21
2018-07-07T00:06:18.102Z,15.14
2018-07-07T00:08:45.306Z,15.07
2018-07-07T00:11:12.540Z,15.08
2018-07-07T00:13:39.713Z,14.93
2018-07-07T00:16:06.903Z,15.04
2018-07-07T00:18:34.089Z,14.88
2018-07-07T00:21:01.325Z,14.92
2018-07-07T00:23:28.920Z,14.82
2018-07-07T00:25:56.141Z,14.67
2018-07-07T00:28:23.396Z,14.71
2018-07-07T00:30:50.661Z,14.60
2018-07-07T00:33:17.783Z,14.57
2018-07-07T00:35:49.790Z,14.56
2018-07-07T00:38:16.915Z,14.51
2018-07-07T00:40:44.052Z,14.38
2018-07-07T00:43:11.913Z,14.29
2018-07-07T00:45:39.015Z,14.27
2018-07-07T00:48:06.170Z,14.17
2018-07-07T00:50:33.335Z,14.08
2018-07-07T00:53:00.556Z,14.02
2018-07-07T00:55:28.021Z,13.90
2018-07-07T00:57:55.206Z,13.81
2018-07-07T01:00:22.393Z,13.74
2018-07-07T01:02:49.572Z,13.66
2018-07-07T01:05:28.426Z,13.60
2018-07-07T01:07:55.581Z,13.47
2018-07-07T01:10:22.917Z,13.53
2018-07-07T01:12:50.237Z,13.39
2018-07-07T01:15:17.392Z,13.27
2018-07-07T01:17:44.537Z,13.34
2018-07-07T01:20:11.804Z,13.39
2018-07-07T01:22:38.916Z,13.29
2018-07-07T01:25:06.056Z,13.25
2018-07-07T01:27:33.905Z,13.26
2018-07-07T01:30:01.022Z,13.26
2018-07-07T01:32:28.169Z,13.33
2018-07-07T01:34:55.428Z,13.28
2018-07-07T01:37:22.571Z,13.25
2018-07-07T01:39:49.727Z,13.19
2018-07-07T01:42:16.883Z,13.20
2018-07-07T01:44:44.004Z,13.06
2018-07-07T01:47:11.121Z,12.98
2018-07-07T01:49:38.276Z,12.95
2018-07-07T01:52:05.407Z,12.81
2018-07-07T01:54:32.589Z,12.70
2018-07-07T01:56:59.739Z,12.61
2018-07-07T01:59:26.855Z,12.53
2018-07-07T02:01:54.108Z,12.48
2018-07-07T02:04:21.265Z,12.39
2018-07-07T02:06:48.535Z,12.43
2018-07-07T02:09:15.718Z,12.29
2018-07-07T02:11:42.859Z,12.22
2018-07-07T02:14:09.973Z,12.13
2018-07-07T02:16:37.106Z,12.08
2018-07-07T02:19:04.427Z,12.11
2018-07-07T02:21:31.623Z,12.07
2018-07-07T02:23:58.765Z,12.08
2018-07-07T02:26:26.036Z,12.01
2018-07-07T02:28:53.155Z,11.92
2018-07-07T02:31:20.321Z,11.92
2018-07-07T02:33:47.584Z,11.92
2018-07-07T02:36:14.721Z,11.96
2018-07-07T02:38:41.849Z,11.91
2018-07-07T02:41:09.120Z,11.89
2018-07-07T02:43:36.246Z,11.94
2018-07-07T02:46:03.405Z,11.87
2018-07-07T02:48:30.627Z,11.83
2018-07-07T02:50:57.765Z,11.95
2018-07-07T02:53:24.932Z,11.91
2018-07-07T02:55:52.144Z,12.01
2018-07-07T02:58:19.325Z,11.92
2018-07-07T03:00:46.676Z,11.89
2018-07-07T03:03:13.940Z,11.81
2018-07-07T03:05:41.085Z,11.89
2018-07-07T03:08:08.228Z,11.90
2018-07-07T03:10:35.502Z,11.82
2018-07-07T03:13:02.748Z,11.79
2018-07-07T03:15:30.000Z,11.76
2018-07-07T03:17:57.260Z,11.75
2018-07-07T03:20:24.485Z,11.77
2018-07-07T03:22:51.629Z,11.77
2018-07-07T03:25:19.674Z,11.83
2018-07-07T03:27:46.821Z,11.83
2018-07-07T03:30:13.944Z,11.92
2018-07-07T03:32:41.101Z,12.05
2018-07-07T03:35:08.852Z,12.04
2018-07-07T03:37:36.571Z,12.03
2018-07-07T03:40:03.930Z,12.12
2018-07-07T03:42:31.022Z,12.12
2018-07-07T03:44:58.183Z,12.10
2018-07-07T03:47:25.437Z,12.27
2018-07-07T03:49:52.687Z,12.18
2018-07-07T03:52:19.827Z,12.28
2018-07-07T03:54:47.081Z,12.37
2018-07-07T03:57:14.276Z,12.30
2018-07-07T03:59:41.381Z,12.37
2018-07-07T04:02:09.023Z,12.31
2018-07-07T04:04:37.925Z,12.42
2018-07-07T04:07:05.480Z,12.54
2018-07-07T04:09:32.659Z,12.58
2018-07-07T04:11:59.809Z,12.57
2018-07-07T04:14:26.974Z,12.76
2018-07-07T04:16:54.289Z,12.78
2018-07-07T04:19:21.436Z,12.82
2018-07-07T04:21:48.588Z,12.84
2018-07-07T04:24:15.860Z,12.86
2018-07-07T04:26:42.974Z,12.99
2018-07-07T04:29:10.108Z,13.01
2018-07-07T04:31:37.292Z,13.05
2018-07-07T04:34:04.633Z,13.17
2018-07-07T04:36:31.755Z,13.26
2018-07-07T04:38:58.972Z,13.27
2018-07-07T04:41:26.097Z,13.25
2018-07-07T04:43:53.227Z,13.27
2018-07-07T04:46:20.475Z,13.34
2018-07-07T04:48:47.604Z,13.42
2018-07-07T04:51:14.732Z,13.55
2018-07-07T04:53:41.969Z,13.63
2018-07-07T04:56:09.119Z,13.81
2018-07-07T04:58:36.312Z,13.85
2018-07-07T05:01:03.571Z,14.03
2018-07-07T05:03:30.671Z,14.00
2018-07-07T05:05:57.828Z,13.98
2018-07-07T05:08:25.032Z,13.95
2018-07-07T05:10:52.184Z,13.97
2018-07-07T05:13:19.298Z,14.00
2018-07-07T05:15:46.524Z,14.15
2018-07-07T05:18:13.625Z,14.33
2018-07-07T05:20:41.775Z,14.30
2018-07-07T05:23:09.054Z,14.51
2018-07-07T05:25:36.197Z,14.78
2018-07-07T05:28:03.386Z,14.71
2018-07-07T05:30:30.669Z,14.74
2018-07-07T05:32:57.836Z,14.91
2018-07-07T05:35:25.012Z,15.12
2018-07-07T05:37:52.226Z,15.22
2018-07-07T05:40:19.356Z,15.13
2018-07-07T05:42:46.489Z,14.96
2018-07-07T05:45:13.685Z,15.12
2018-07-07T05:47:40.799Z,15.15
2018-07-07T05:50:08.047Z,15.20
2018-07-07T05:52:35.364Z,15.19
2018-07-07T05:55:02.496Z,15.07
2018-07-07T05:57:29.711Z,15.18
2018-07-07T05:59:56.891Z,15.30
2018-07-07T06:02:24.064Z,15.75
2018-07-07T06:04:51.176Z,15.97
2018-07-07T06:07:18.421Z,15.68
2018-07-07T06:09:45.631Z,15.47
2018-07-07T06:12:12.777Z,15.28
2018-07-07T06:14:40.035Z,15.35
2018-07-07T06:17:07.193Z,15.27
2018-07-07T06:19:34.381Z,15.42
2018-07-07T06:22:01.552Z,15.60
2018-07-07T06:24:28.736Z,15.60
2018-07-07T06:26:55.886Z,15.70
2018-07-07T06:29:23.793Z,15.78
2018-07-07T06:31:51.024Z,15.89
2018-07-07T06:34:18.175Z,15.80
2018-07-07T06:36:45.343Z,15.57
2018-07-07T06:39:12.588Z,15.67
2018-07-07T06:41:39.705Z,15.94
2018-07-07T06:44:06.907Z,16.32
2018-07-07T06:46:34.098Z,16.24
2018-07-07T06:49:01.224Z,16.17
2018-07-07T06:51:28.373Z,16.39
2018-07-07T06:53:55.823Z,16.17
2018-07-07T06:56:22.917Z,16.12
2018-07-07T06:58:50.116Z,16.17
2018-07-07T07:01:17.325Z,16.41
2018-07-07T07:03:44.478Z,16.51
2018-07-07T07:06:11.642Z,16.70
2018-07-07T07:08:39.065Z,16.93
2018-07-07T07:11:06.358Z,16.86
2018-07-07T07:13:33.607Z,16.93
2018-07-07T07:16:01.663Z,17.21
2018-07-07T07:18:28.796Z,17.54
2018-07-07T07:20:56.009Z,17.43
2018-07-07T07:23:23.224Z,17.41
2018-07-07T07:25:50.475Z,17.24
2018-07-07T07:28:17.673Z,17.51
2018-07-07T07:30:44.786Z,17.60
2018-07-07T07:33:11.932Z,17.57
2018-07-07T07:35:39.239Z,17.67
2018-07-07T07:38:06.892Z,17.82
2018-07-07T07:40:34.078Z,17.80
2018-07-07T07:43:01.257Z,17.84
2018-07-07T07:45:28.376Z,18.08
2018-07-07T07:47:55.580Z,18.18
2018-07-07T07:50:24.144Z,18.60
2018-07-07T07:52:51.397Z,18.72
2018-07-07T07:55:18.571Z,18.54
2018-07-07T07:57:45.752Z,18.70
2018-07-07T08:00:12.997Z,18.78
2018-07-07T08:02:40.179Z,18.66
2018-07-07T08:05:07.503Z,18.67
2018-07-07T08:07:35.558Z,18.48
2018-07-07T08:10:02.684Z,18.48
2018-07-07T08:12:29.923Z,18.31
2018-07-07T08:14:57.109Z,18.14
2018-07-07T08:17:24.289Z,18.09
2018-07-07T08:19:52.315Z,17.93
2018-07-07T08:22:19.453Z,18.19
2018-07-07T08:24:46.866Z,18.63
2018-07-07T08:27:14.755Z,19.07
2018-07-07T08:29:42.024Z,19.43
2018-07-07T08:32:09.231Z,19.77
2018-07-07T08:34:36.522Z,20.04
2018-07-07T08:37:03.946Z,20.20
2018-07-07T08:39:31.154Z,20.31
2018-07-07T08:41:58.373Z,20.86
2018-07-07T08:44:25.622Z,21.29
2018-07-07T08:46:52.764Z,21.31
2018-07-07T08:49:20.398Z,21.27
2018-07-07T08:51:47.614Z,21.67
2018-07-07T08:54:14.832Z,21.95
2018-07-07T08:56:42.082Z,21.59
2018-07-07T08:59:09.279Z,21.30
2018-07-07T09:01:36.590Z,21.07
2018-07-07T09:04:03.902Z,20.47
2018-07-07T09:06:31.052Z,20.54
2018-07-07T09:08:58.268Z,20.23
2018-07-07T09:11:25.488Z,20.00
2018-07-07T09:13:52.692Z,20.59
2018-07-07T09:16:19.870Z,21.26
2018-07-07T09:18:47.090Z,21.60
2018-07-07T09:21:14.218Z,22.06
2018-07-07T09:23:41.352Z,22.36
2018-07-07T09:26:09.875Z,22.49
2018-07-07T09:28:37.054Z,23.24
2018-07-07T09:31:04.168Z,23.41
2018-07-07T09:33:31.325Z,23.12
2018-07-07T09:35:58.528Z,23.45
2018-07-07T09:38:25.733Z,23.73
2018-07-07T09:40:52.977Z,23.35
2018-07-07T09:43:20.176Z,23.19
2018-07-07T09:45:47.454Z,23.19
2018-07-07T09:48:14.633Z,23.23
2018-07-07T09:50:41.896Z,23.40
2018-07-07T09:53:09.112Z,23.25
2018-07-07T09:55:36.278Z,23.05
2018-07-07T09:58:03.383Z,23.18
2018-07-07T10:00:36.384Z,23.09
2018-07-07T10:03:03.692Z,23.31
2018-07-07T10:05:31.001Z,23.64
2018-07-07T10:07:58.149Z,24.12
2018-07-07T10:10:25.281Z,24.37
2018-07-07T10:12:52.418Z,24.12
2018-07-07T10:15:19.726Z,24.01
2018-07-07T10:17:47.017Z,24.63
2018-07-07T10:20:14.230Z,24.26
2018-07-07T10:22:41.419Z,24.09
2018-07-07T10:25:08.555Z,24.51
2018-07-07T10:27:35.802Z,24.46
2018-07-07T10:30:03.093Z,24.24
2018-07-07T10:32:30.228Z,24.75
2018-07-07T10:34:57.583Z,24.74
2018-07-07T10:37:24.820Z,24.68
2018-07-07T10:39:52.066Z,25.30
2018-07-07T10:42:19.289Z,25.27
2018-07-07T10:44:46.459Z,25.63
2018-07-07T10:47:13.590Z,26.26
2018-07-07T10:49:41.643Z,26.28
2018-07-07T10:52:09.242Z,26.57
2018-07-07T10:54:36.449Z,26.81
2018-07-07T10:57:03.688Z,26.52
2018-07-07T10:59:30.875Z,27.08
2018-07-07T11:01:58.016Z,26.46
2018-07-07T11:04:25.245Z,27.10
2018-07-07T11:06:52.540Z,27.28
2018-07-07T11:09:19.744Z,27.48
2018-07-07T11:11:46.931Z,27.46
2018-07-07T11:14:14.079Z,27.68
2018-07-07T11:16:41.279Z,28.12
2018-07-07T11:19:08.476Z,28.40
2018-07-07T11:21:35.672Z,28.47
2018-07-07T11:24:02.920Z,28.80
2018-07-07T11:26:30.049Z,28.86
2018-07-07T11:28:57.299Z,29.10
2018-07-07T11:31:24.519Z,29.56
2018-07-07T11:33:52.113Z,29.88
2018-07-07T11:36:19.337Z,30.44
2018-07-07T11:38:46.471Z,30.01
2018-07-07T11:41:17.779Z,30.39
2018-07-07T11:43:45.427Z,30.00
2018-07-07T11:46:12.604Z,30.60
2018-07-07T11:48:39.778Z,31.37
2018-07-07T11:51:06.977Z,31.11
2018-07-07T11:53:34.244Z,31.79
2018-07-07T11:56:01.439Z,32.15
2018-07-07T11:58:28.964Z,33.23
2018-07-07T12:00:56.149Z,32.09
2018-07-07T12:03:23.332Z,32.75
2018-07-07T12:05:50.691Z,32.99
2018-07-07T12:08:17.912Z,33.46
2018-07-07T12:10:45.073Z,32.61
2018-07-07T12:13:12.278Z,31.81
2018-07-07T12:15:39.482Z,31.14
2018-07-07T12:18:06.704Z,30.76
2018-07-07T12:20:33.966Z,30.36
2018-07-07T12:23:01.120Z,29.95
2018-07-07T12:25:28.291Z,29.62
2018-07-07T12:27:55.460Z,29.12
2018-07-07T12:30:23.510Z,29.15
2018-07-07T12:32:50.693Z,28.42
2018-07-07T12:35:18.243Z,27.99
2018-07-07T12:37:45.343Z,28.23
2018-07-07T12:40:12.505Z,27.52
2018-07-07T12:42:39.836Z,27.87
2018-07-07T12:45:07.064Z,27.60
2018-07-07T12:47:34.207Z,27.14
2018-07-07T12:50:01.466Z,26.80
2018-07-07T12:52:28.580Z,26.84
2018-07-07T12:54:55.798Z,27.18
2018-07-07T12:57:23.020Z,27.36
2018-07-07T12:59:50.140Z,27.14
2018-07-07T13:02:17.292Z,27.32
2018-07-07T13:04:44.497Z,27.40
2018-07-07T13:07:11.709Z,27.83
2018-07-07T13:09:38.975Z,27.73
2018-07-07T13:12:06.268Z,27.81
2018-07-07T13:14:33.535Z,27.57
2018-07-07T13:17:00.743Z,27.78
2018-07-07T13:19:28.024Z,27.37
2018-07-07T13:21:55.206Z,27.87
2018-07-07T13:24:22.373Z,28.10
2018-07-07T13:26:49.566Z,28.18
2018-07-07T13:29:16.712Z,27.83
2018-07-07T13:31:45.054Z,27.90
2018-07-07T13:34:12.595Z,28.34
2018-07-07T13:36:39.731Z,28.42
2018-07-07T13:39:07.156Z,28.24
2018-07-07T13:41:34.405Z,28.12
2018-07-07T13:44:01.627Z,28.54
2018-07-07T13:46:28.824Z,28.53
2018-07-07T13:48:56.039Z,28.63
2018-07-07T13:51:23.160Z,28.30
2018-07-07T13:53:50.273Z,28.24
2018-07-07T13:56:18.435Z,28.16
2018-07-07T13:58:45.664Z,28.10
2018-07-07T14:01:12.834Z,28.15
2018-07-07T14:03:40.062Z,28.62
2018-07-07T14:06:07.222Z,28.67
2018-07-07T14:08:34.576Z,28.88
2018-07-07T14:11:02.198Z,28.83
2018-07-07T14:13:30.389Z,29.01
2018-07-07T14:15:57.551Z,28.87
2018-07-07T14:18:24.741Z,28.92
2018-07-07T14:20:52.025Z,29.43
2018-07-07T14:23:19.222Z,29.28
2018-07-07T14:25:46.399Z,29.51
2018-07-07T14:28:13.643Z,30.34
2018-07-07T14:30:40.795Z,30.42
2018-07-07T14:33:08.530Z,29.50
2018-07-07T14:35:35.740Z,29.47
2018-07-07T14:38:02.837Z,29.21
2018-07-07T14:40:30.041Z,28.95
2018-07-07T14:42:57.247Z,28.63
2018-07-07T14:45:29.769Z,29.19
2018-07-07T14:47:58.376Z,29.44
2018-07-07T14:50:25.816Z,29.83
2018-07-07T14:52:53.320Z,29.56
2018-07-07T14:55:21.869Z,30.14
2018-07-07T14:57:49.137Z,30.08
2018-07-07T15:00:18.280Z,30.36
2018-07-07T15:02:46.811Z,31.30
2018-07-07T15:05:13.959Z,32.66
2018-07-07T15:07:41.211Z,32.14
2018-07-07T15:10:09.153Z,31.44
2018-07-07T15:12:36.413Z,30.96
2018-07-07T15:15:03.730Z,33.87
2018-07-07T15:17:30.887Z,35.29
2018-07-07T15:19:58.070Z,37.06
2018-07-07T15:22:25.356Z,37.35
2018-07-07T15:24:52.544Z,36.73
2018-07-07T15:27:19.692Z,37.54
2018-07-07T15:29:47.016Z,38.41
2018-07-07T15:32:14.148Z,39.34
2018-07-07T15:34:41.441Z,39.67
2018-07-07T15:37:08.659Z,37.96
2018-07-07T15:39:35.832Z,38.90
2018-07-07T15:42:03.064Z,39.10
2018-07-07T15:44:30.334Z,37.20
2018-07-07T15:46:58.307Z,38.23
2018-07-07T15:49:25.565Z,39.45
2018-07-07T15:51:52.745Z,39.67
2018-07-07T15:54:19.991Z,40.72
2018-07-07T15:56:47.107Z,40.13
2018-07-07T15:59:14.339Z,40.11
2018-07-07T16:01:41.560Z,38.82
2018-07-07T16:04:08.676Z,38.52
2018-07-07T16:06:36.750Z,37.53
2018-07-07T16:09:05.341Z,36.42
2018-07-07T16:11:32.624Z,35.24
2018-07-07T16:13:59.832Z,36.11
2018-07-07T16:16:26.969Z,35.74
2018-07-07T16:18:54.088Z,35.42
2018-07-07T16:21:21.485Z,34.56
2018-07-07T16:23:48.932Z,34.76
2018-07-07T16:26:16.405Z,35.54
2018-07-07T16:28:43.596Z,36.44
2018-07-07T16:31:10.714Z,35.87
2018-07-07T16:33:37.956Z,37.23
2018-07-07T16:36:05.225Z,37.12
2018-07-07T16:38:32.462Z,35.19
2018-07-07T16:40:59.761Z,34.94
2018-07-07T16:43:27.397Z,35.68
2018-07-07T16:45:54.644Z,36.33
2018-07-07T16:48:21.996Z,36.03
2018-07-07T16:50:49.463Z,34.05
2018-07-07T16:53:16.700Z,33.85
2018-07-07T16:55:45.484Z,33.22
2018-07-07T16:58:13.319Z,33.06
2018-07-07T17:00:40.568Z,32.34
2018-07-07T17:03:07.816Z,30.91
2018-07-07T17:05:35.125Z,30.16
2018-07-07T17:08:02.732Z,29.31
2018-07-07T17:10:29.902Z,28.71
2018-07-07T17:12:57.544Z,27.72
2018-07-07T17:15:24.753Z,27.41
2018-07-07T17:17:51.907Z,26.78
2018-07-07T17:20:19.114Z,26.01
2018-07-07T17:22:47.248Z,26.07
2018-07-07T17:25:14.568Z,25.79
2018-07-07T17:27:42.556Z,25.46
2018-07-07T17:30:09.783Z,25.43
2018-07-07T17:32:37.050Z,25.14
2018-07-07T17:35:04.271Z,25.12
2018-07-07T17:37:31.493Z,24.98
2018-07-07T17:39:58.732Z,24.94
2018-07-07T17:42:26.591Z,24.86
2018-07-07T17:44:53.785Z,24.82
2018-07-07T17:47:21.083Z,24.82
2018-07-07T17:49:48.411Z,24.61
2018-07-07T17:52:15.670Z,24.61
2018-07-07T17:54:42.970Z,24.71
2018-07-07T17:57:10.150Z,24.51
2018-07-07T17:59:37.880Z,24.48
2018-07-07T18:02:05.263Z,24.37
2018-07-07T18:04:32.541Z,24.32
2018-07-07T18:06:59.673Z,24.28
2018-07-07T18:09:26.837Z,24.18
2018-07-07T18:11:54.133Z,24.07
2018-07-07T18:14:22.072Z,23.99
2018-07-07T18:16:49.296Z,23.90
2018-07-07T18:19:16.503Z,23.95
2018-07-07T18:21:43.605Z,23.82
2018-07-07T18:24:10.786Z,23.79
2018-07-07T18:26:38.084Z,23.73
2018-07-07T18:29:05.303Z,23.75
2018-07-07T18:31:32.504Z,23.61
2018-07-07T18:33:59.670Z,23.51
2018-07-07T18:36:26.865Z,23.40
2018-07-07T18:38:54.107Z,23.30
2018-07-07T18:41:21.351Z,23.29
2018-07-07T18:43:48.498Z,23.31
2018-07-07T18:46:15.619Z,23.22
2018-07-07T18:48:42.812Z,23.11
2018-07-07T18:51:10.009Z,23.11
2018-07-07T18:53:37.443Z,23.09
2018-07-07T18:56:04.947Z,23.03
2018-07-07T18:58:32.146Z,22.87
2018-07-07T19:00:59.300Z,22.74
2018-07-07T19:03:26.572Z,22.72
2018-07-07T19:05:53.757Z,22.72
2018-07-07T19:08:20.900Z,22.51
2018-07-07T19:10:48.508Z,22.49
2018-07-07T19:13:15.619Z,22.34
2018-07-07T19:15:46.788Z,22.31
2018-07-07T19:18:15.237Z,22.23
2018-07-07T19:20:48.297Z,22.10
2018-07-07T19:23:21.101Z,21.92
2018-07-07T19:25:54.986Z,21.93
2018-07-07T19:28:22.224Z,21.92
2018-07-07T19:30:49.375Z,21.77
2018-07-07T19:33:22.209Z,21.82
2018-07-07T19:35:55.228Z,21.68
2018-07-07T19:38:22.434Z,21.70
2018-07-07T19:40:49.675Z,21.55
2018-07-07T19:43:16.885Z,21.44
2018-07-07T19:45:44.467Z,21.51
2018-07-07T19:48:11.790Z,21.27
2018-07-07T19:50:39.092Z,21.27
2018-07-07T19:53:06.299Z,21.13
2018-07-07T19:55:33.453Z,21.20
2018-07-07T19:58:00.601Z,21.08
2018-07-07T20:00:27.937Z,21.11
2018-07-07T20:02:55.128Z,21.02
2018-07-07T20:05:22.284Z,21.00
2018-07-07T20:07:49.563Z,21.06
2018-07-07T20:10:16.670Z,20.95
2018-07-07T20:12:43.876Z,20.89
2018-07-07T20:15:11.485Z,20.85
2018-07-07T20:18:05.211Z,20.77
2018-07-07T20:20:38.255Z,20.79
2018-07-07T20:23:13.305Z,20.67
2018-07-07T20:25:40.639Z,20.60
2018-07-07T20:28:14.215Z,20.51
2018-07-07T20:30:41.423Z,20.50
2018-07-07T20:33:08.747Z,20.44
2018-07-07T20:35:41.468Z,20.36
2018-07-07T20:38:08.808Z,20.35
2018-07-07T20:40:36.065Z,20.29
2018-07-07T20:43:03.278Z,20.21
2018-07-07T20:45:30.999Z,20.10
2018-07-07T20:47:58.227Z,20.13
2018-07-07T20:50:25.825Z,20.12
2018-07-07T20:52:52.987Z,20.10
2018-07-07T20:55:20.409Z,20.05
2018-07-07T20:57:47.718Z,19.96
2018-07-07T21:00:15.332Z,19.96
2018-07-07T21:02:42.452Z,19.88
2018-07-07T21:05:09.670Z,19.80
2018-07-07T21:07:36.817Z,19.82
2018-07-07T21:10:04.053Z,19.71
2018-07-07T21:12:31.433Z,19.77
2018-07-07T21:14:58.661Z,19.69
2018-07-07T21:17:25.827Z,19.70
2018-07-07T21:19:53.508Z,19.58
2018-07-07T21:22:20.716Z,19.52
2018-07-07T21:24:47.993Z,19.50
2018-07-07T21:27:15.184Z,19.33
2018-07-07T21:29:42.380Z,19.38
2018-07-07T21:32:09.595Z,19.34
2018-07-07T21:34:36.943Z,19.23
2018-07-07T21:37:04.194Z,19.25
2018-07-07T21:39:31.345Z,19.23
2018-07-07T21:41:58.527Z,19.18
2018-07-07T21:44:25.641Z,19.09
2018-07-07T21:46:52.904Z,18.98
2018-07-07T21:49:20.572Z,19.03
2018-07-07T21:51:47.701Z,18.93
2018-07-07T21:54:14.852Z,18.93
2018-07-07T21:56:42.076Z,18.78
2018-07-07T21:59:15.784Z,18.66
2018-07-07T22:01:55.990Z,18.67
2018-07-07T22:04:29.558Z,18.53
2018-07-07T22:07:02.726Z,18.49
2018-07-07T22:09:31.036Z,18.55
2018-07-07T22:11:58.712Z,18.47
2018-07-07T22:14:25.889Z,18.41
2018-07-07T22:16:53.343Z,18.38
2018-07-07T22:19:20.539Z,18.35
2018-07-07T22:21:57.139Z,18.32
2018-07-07T22:24:24.310Z,18.23
2018-07-07T22:26:53.936Z,18.17
2018-07-07T22:29:21.113Z,18.11
2018-07-07T22:31:48.364Z,18.13
2018-07-07T22:34:15.473Z,17.98
2018-07-07T22:36:42.716Z,18.00
2018-07-07T22:39:09.940Z,17.87
2018-07-07T22:41:51.022Z,17.85
2018-07-07T22:44:18.456Z,17.89
2018-07-07T22:46:45.601Z,17.97
2018-07-07T22:49:12.788Z,17.80
2018-07-07T22:51:42.322Z,17.80
2018-07-07T22:54:09.534Z,17.73
2018-07-07T22:56:36.871Z,17.80
2018-07-07T22:59:04.058Z,17.61
2018-07-07T23:01:31.231Z,17.61
2018-07-07T23:03:58.498Z,17.53
2018-07-07T23:06:25.620Z,17.55
2018-07-07T23:08:52.832Z,17.46
2018-07-07T23:11:20.065Z,17.45
2018-07-07T23:13:47.223Z,17.31
2018-07-07T23:16:14.414Z,17.21
2018-07-07T23:18:41.599Z,17.15
2018-07-07T23:21:08.834Z,17.17
2018-07-07T23:23:36.020Z,17.12
2018-07-07T23:26:03.845Z,17.04
2018-07-07T23:28:31.063Z,17.03
2018-07-07T23:30:58.247Z,17.00
2018-07-07T23:33:25.620Z,16.95
2018-07-07T23:35:52.810Z,17.02
2018-07-07T23:38:19.930Z,16.99
2018-07-07T23:40:47.116Z,16.96
2018-07-07T23:43:14.247Z,16.95
2018-07-07T23:45:41.511Z,16.88
2018-07-07T23:48:08.756Z,16.92
2018-07-07T23:50:35.905Z,16.99
2018-07-07T23:53:03.019Z,16.90
2018-07-07T23:55:30.195Z,16.88
2018-07-07T23:57:57.438Z,16.85
